Time;durP1;ratioP1;P1;durP2;ratioP2;P2;SDS_P1;SDS_P2;PMS_P1;PMS_P2;Temp;Humidity;BMP_temperature;BMP_pressure;BME280_temperature;BME280_humidity;BME280_pressure;Samples;Min_cycle;Max_cycle;Signal;HPM_P1;HPM_P2
2022/10/04 00:00:11;;;;;;;21.37;19.70;;;;;;;;;;5075269;28;20461;-77
2022/10/04 00:02:39;;;;;;;23.27;21.63;;;;;;;;;;5074547;28;20472;-77
2022/10/04 00:05:08;;;;;;;22.83;21.20;;;;;;;;;;5075120;28;20448;-78
2022/10/04 00:07:38;;;;;;;21.73;20.37;;;;;;;;;;5074669;28;20429;-77
2022/10/04 00:10:08;;;;;;;22.40;20.90;;;;;;;;;;5075452;28;20449;-77
2022/10/04 00:12:37;;;;;;;22.90;21.13;;;;;;;;;;5074148;28;20481;-77
2022/10/04 00:15:06;;;;;;;22.40;21.00;;;;;;;;;;5074717;28;20445;-77
2022/10/04 00:17:35;;;;;;;23.47;21.47;;;;;;;;;;5074929;28;20461;-77
2022/10/04 00:20:03;;;;;;;24.93;22.50;;;;;;;;;;5075200;28;20510;-77
2022/10/04 00:22:30;;;;;;;22.07;20.60;;;;;;;;;;5074422;28;20583;-77
2022/10/04 00:25:16;;;;;;;22.57;21.07;;;;;;;;;;5074709;28;20424;-77
2022/10/04 00:27:58;;;;;;;22.27;20.87;;;;;;;;;;5075154;28;20503;-77
2022/10/04 00:30:25;;;;;;;23.57;21.93;;;;;;;;;;5074445;28;20806;-77
2022/10/04 00:33:02;;;;;;;22.93;21.33;;;;;;;;;;5074397;28;20491;-77
2022/10/04 00:35:50;;;;;;;25.17;22.73;;;;;;;;;;5074744;28;20472;-77
2022/10/04 00:38:26;;;;;;;23.27;21.60;;;;;;;;;;5069896;28;20457;-77
2022/10/04 00:40:56;;;;;;;23.53;22.03;;;;;;;;;;5074616;28;20445;-78
2022/10/04 00:43:26;;;;;;;23.00;21.40;;;;;;;;;;5074402;28;20456;-77
2022/10/04 00:45:56;;;;;;;22.63;21.30;;;;;;;;;;5075501;28;20455;-77
2022/10/04 00:48:36;;;;;;;22.80;20.90;;;;;;;;;;5078309;28;20801;-77
2022/10/04 00:51:08;;;;;;;22.40;20.50;;;;;;;;;;5078216;28;20414;-78
2022/10/04 00:53:48;;;;;;;24.00;21.63;;;;;;;;;;5078730;28;20454;-77
2022/10/04 00:56:18;;;;;;;22.93;21.40;;;;;;;;;;5078285;28;20474;-77
2022/10/04 00:58:48;;;;;;;24.20;22.37;;;;;;;;;;5078492;28;20445;-77
2022/10/04 01:01:18;;;;;;;22.40;20.90;;;;;;;;;;5077623;28;20464;-78
2022/10/04 01:03:48;;;;;;;21.03;19.73;;;;;;;;;;5078499;28;20479;-78
2022/10/04 01:06:16;;;;;;;21.00;19.80;;;;;;;;;;5077875;28;20452;-77
2022/10/04 01:08:46;;;;;;;24.50;22.90;;;;;;;;;;5077840;28;20456;-77
2022/10/04 01:11:15;;;;;;;24.63;22.40;;;;;;;;;;5078414;28;20778;-77
2022/10/04 01:13:46;;;;;;;23.03;21.03;;;;;;;;;;5078128;28;20479;-77
2022/10/04 01:16:15;;;;;;;21.80;20.40;;;;;;;;;;5078152;28;20488;-77
2022/10/04 01:18:42;;;;;;;22.87;21.17;;;;;;;;;;5077719;28;20445;-77
2022/10/04 01:21:23;;;;;;;24.17;22.10;;;;;;;;;;5077853;28;20453;-77
2022/10/04 01:23:52;;;;;;;22.77;21.03;;;;;;;;;;5077589;28;20481;-78
2022/10/04 01:26:37;;;;;;;21.73;20.40;;;;;;;;;;5077820;28;20449;-77
2022/10/04 01:29:07;;;;;;;25.00;22.73;;;;;;;;;;5077790;28;20448;-78
2022/10/04 01:31:36;;;;;;;23.30;21.73;;;;;;;;;;5078011;28;20438;-77
2022/10/04 01:34:05;;;;;;;22.23;20.13;;;;;;;;;;5077154;28;20484;-77
2022/10/04 01:36:33;;;;;;;21.97;20.57;;;;;;;;;;5077839;28;20520;-77
2022/10/04 01:39:02;;;;;;;22.17;20.77;;;;;;;;;;5077390;28;20456;-78
2022/10/04 01:41:32;;;;;;;23.10;21.50;;;;;;;;;;5077281;28;20457;-77
2022/10/04 01:44:01;;;;;;;23.00;21.40;;;;;;;;;;5077074;28;20830;-78
2022/10/04 01:46:32;;;;;;;24.37;22.67;;;;;;;;;;5077507;28;20457;-78
2022/10/04 01:49:01;;;;;;;24.00;21.70;;;;;;;;;;5077852;28;20441;-77
2022/10/04 01:51:31;;;;;;;22.93;21.33;;;;;;;;;;5077094;28;20428;-77
2022/10/04 01:54:01;;;;;;;23.20;21.50;;;;;;;;;;5076682;28;21042;-78
2022/10/04 01:56:32;;;;;;;26.37;20.87;;;;;;;;;;5077060;28;20488;-77
2022/10/04 01:59:01;;;;;;;22.93;21.37;;;;;;;;;;5076221;28;20441;-78
2022/10/04 02:01:30;;;;;;;21.63;20.47;;;;;;;;;;5076849;28;20446;-77
2022/10/04 02:04:00;;;;;;;21.80;20.53;;;;;;;;;;5076850;28;20475;-77
2022/10/04 02:06:28;;;;;;;21.80;20.30;;;;;;;;;;5077223;28;20810;-77
2022/10/04 02:08:56;;;;;;;22.23;20.50;;;;;;;;;;5076601;28;20449;-77
2022/10/04 02:11:25;;;;;;;23.30;21.90;;;;;;;;;;5076378;28;20457;-77
2022/10/04 02:13:55;;;;;;;22.53;20.93;;;;;;;;;;5076287;28;20524;-77
2022/10/04 02:16:23;;;;;;;23.30;21.70;;;;;;;;;;5076698;28;20481;-78
2022/10/04 02:18:51;;;;;;;21.13;19.47;;;;;;;;;;5076839;28;20457;-78
2022/10/04 02:21:19;;;;;;;21.40;20.10;;;;;;;;;;5076340;28;20477;-78
2022/10/04 02:23:47;;;;;;;22.97;21.73;;;;;;;;;;5076489;28;20480;-78
2022/10/04 02:26:14;;;;;;;22.80;20.83;;;;;;;;;;5076672;28;20465;-77
2022/10/04 02:28:42;;;;;;;22.37;20.70;;;;;;;;;;5076999;28;20503;-77
2022/10/04 02:33:57;;;;;;;22.50;20.87;;;;;;;;;;5076496;28;20529;-77
2022/10/04 02:36:26;;;;;;;24.00;21.87;;;;;;;;;;5076519;28;20816;-77
2022/10/04 02:38:59;;;;;;;21.50;20.30;;;;;;;;;;5076521;28;20420;-77
2022/10/04 02:41:28;;;;;;;23.30;21.43;;;;;;;;;;5076079;28;20521;-77
2022/10/04 02:43:57;;;;;;;22.17;20.97;;;;;;;;;;5075719;28;20485;-77
2022/10/04 02:46:28;;;;;;;22.40;20.90;;;;;;;;;;5076304;28;20477;-78
2022/10/04 02:48:57;;;;;;;22.47;20.97;;;;;;;;;;5076361;28;20438;-77
2022/10/04 02:51:26;;;;;;;23.90;21.73;;;;;;;;;;5076059;28;20450;-78
2022/10/04 02:53:57;;;;;;;23.07;21.60;;;;;;;;;;5076112;28;20447;-77
2022/10/04 02:56:25;;;;;;;21.63;20.40;;;;;;;;;;5076235;28;20501;-77
2022/10/04 02:58:52;;;;;;;24.47;22.70;;;;;;;;;;5075817;28;20456;-77
2022/10/04 03:01:27;;;;;;;23.50;21.60;;;;;;;;;;5075488;28;20453;-78
2022/10/04 03:03:55;;;;;;;22.73;21.33;;;;;;;;;;5075952;28;20475;-77
2022/10/04 03:06:25;;;;;;;23.57;21.83;;;;;;;;;;5076511;28;20449;-77
2022/10/04 03:08:53;;;;;;;23.87;22.27;;;;;;;;;;5075271;28;20946;-77
2022/10/04 03:11:22;;;;;;;22.77;21.47;;;;;;;;;;5075101;28;20461;-77
2022/10/04 03:13:51;;;;;;;21.50;20.30;;;;;;;;;;5075599;28;20499;-77
2022/10/04 03:16:19;;;;;;;22.90;21.40;;;;;;;;;;5075442;28;20483;-77
2022/10/04 03:18:49;;;;;;;23.67;21.63;;;;;;;;;;5075549;28;20461;-77
2022/10/04 03:21:18;;;;;;;23.37;21.53;;;;;;;;;;5075387;28;20454;-78
2022/10/04 03:23:46;;;;;;;23.53;22.13;;;;;;;;;;5075266;28;20467;-77
2022/10/04 03:26:19;;;;;;;22.20;20.90;;;;;;;;;;5075655;28;20437;-77
2022/10/04 03:28:47;;;;;;;21.53;20.10;;;;;;;;;;5076145;28;20437;-77
2022/10/04 03:31:14;;;;;;;24.93;22.73;;;;;;;;;;5074893;28;20456;-78
2022/10/04 03:33:42;;;;;;;23.33;21.67;;;;;;;;;;5074873;28;21016;-77
2022/10/04 03:36:13;;;;;;;22.80;21.30;;;;;;;;;;5074927;28;20452;-78
2022/10/04 03:38:40;;;;;;;24.80;22.90;;;;;;;;;;5075639;28;20445;-78
2022/10/04 03:41:10;;;;;;;26.20;23.63;;;;;;;;;;5075027;28;20453;-78
2022/10/04 03:43:40;;;;;;;23.87;22.67;;;;;;;;;;5075226;28;20452;-78
2022/10/04 03:46:09;;;;;;;22.50;21.07;;;;;;;;;;5074845;28;20457;-78
2022/10/04 03:48:38;;;;;;;23.73;21.83;;;;;;;;;;5075170;28;20453;-78
2022/10/04 03:51:07;;;;;;;25.83;23.17;;;;;;;;;;5074596;28;20502;-78
2022/10/04 03:53:41;;;;;;;23.00;21.50;;;;;;;;;;5074425;28;20678;-77
2022/10/04 03:56:10;;;;;;;25.47;23.67;;;;;;;;;;5074683;28;20992;-77
2022/10/04 03:58:37;;;;;;;22.30;20.80;;;;;;;;;;5074643;28;20456;-77
2022/10/04 04:01:10;;;;;;;24.83;22.90;;;;;;;;;;5074324;28;20531;-78
2022/10/04 04:03:43;;;;;;;21.90;20.60;;;;;;;;;;5075103;28;20466;-77
2022/10/04 04:06:15;;;;;;;23.60;21.70;;;;;;;;;;5075042;28;20441;-77
2022/10/04 04:08:45;;;;;;;23.13;21.50;;;;;;;;;;5074562;28;20438;-77
2022/10/04 04:11:17;;;;;;;24.87;22.80;;;;;;;;;;5074318;28;20834;-78
2022/10/04 04:13:47;;;;;;;21.63;20.20;;;;;;;;;;5074880;28;20542;-77
2022/10/04 04:16:15;;;;;;;21.33;20.00;;;;;;;;;;5074815;28;20457;-78
2022/10/04 04:18:44;;;;;;;21.53;20.30;;;;;;;;;;5075069;28;20769;-77
2022/10/04 04:21:16;;;;;;;23.20;21.37;;;;;;;;;;5074096;28;20796;-78
2022/10/04 04:23:47;;;;;;;21.80;20.50;;;;;;;;;;5074984;28;20464;-77
2022/10/04 04:26:20;;;;;;;22.40;20.80;;;;;;;;;;5074474;28;20534;-77
2022/10/04 04:28:48;;;;;;;22.90;21.50;;;;;;;;;;5074943;28;20524;-77
2022/10/04 04:31:19;;;;;;;24.03;21.80;;;;;;;;;;5074362;28;20517;-77
2022/10/04 04:33:49;;;;;;;21.67;20.37;;;;;;;;;;5073995;28;20575;-77
2022/10/04 04:36:18;;;;;;;21.60;20.50;;;;;;;;;;5074931;28;20405;-77
2022/10/04 04:41:32;;;;;;;23.43;21.67;;;;;;;;;;5074211;28;20763;-77
2022/10/04 04:43:59;;;;;;;22.47;21.27;;;;;;;;;;5074470;28;20475;-77
2022/10/04 04:46:28;;;;;;;23.20;21.23;;;;;;;;;;5074608;28;20437;-77
2022/10/04 04:49:00;;;;;;;21.37;20.07;;;;;;;;;;5074345;28;20437;-77
2022/10/04 04:51:27;;;;;;;23.33;21.60;;;;;;;;;;5073677;28;20420;-77
2022/10/04 04:53:57;;;;;;;22.87;21.30;;;;;;;;;;5073901;28;20488;-77
2022/10/04 04:56:26;;;;;;;23.17;21.77;;;;;;;;;;5074254;28;20812;-77
2022/10/04 04:58:55;;;;;;;23.00;21.20;;;;;;;;;;5073949;28;20453;-77
2022/10/04 05:01:24;;;;;;;23.40;21.90;;;;;;;;;;5073710;28;20460;-78
2022/10/04 05:04:02;;;;;;;22.47;20.87;;;;;;;;;;5074120;28;20984;-77
2022/10/04 05:06:29;;;;;;;22.40;20.90;;;;;;;;;;5074531;28;20536;-77
2022/10/04 05:08:58;;;;;;;23.07;21.67;;;;;;;;;;5074400;28;20929;-77
2022/10/04 05:11:28;;;;;;;23.63;22.03;;;;;;;;;;5074267;28;20426;-77
2022/10/04 05:13:57;;;;;;;23.40;21.83;;;;;;;;;;5074381;28;20563;-77
2022/10/04 05:16:27;;;;;;;22.93;21.50;;;;;;;;;;5074037;28;20414;-78
2022/10/04 05:18:57;;;;;;;25.07;23.27;;;;;;;;;;5074336;28;20782;-77
2022/10/04 05:21:25;;;;;;;26.33;24.43;;;;;;;;;;5074010;28;20454;-78
2022/10/04 05:23:56;;;;;;;25.33;22.97;;;;;;;;;;5074473;28;20473;-78
2022/10/04 05:26:27;;;;;;;23.07;21.67;;;;;;;;;;5074049;28;20408;-78
2022/10/04 05:28:55;;;;;;;24.73;22.97;;;;;;;;;;5074400;28;20513;-77
2022/10/04 05:31:37;;;;;;;24.40;22.70;;;;;;;;;;5073583;28;20449;-78
2022/10/04 05:34:07;;;;;;;23.10;21.73;;;;;;;;;;5073819;28;21022;-78
2022/10/04 05:36:52;;;;;;;23.27;21.73;;;;;;;;;;5077494;28;20452;-77
2022/10/04 05:39:23;;;;;;;24.07;22.20;;;;;;;;;;5077479;28;20901;-77
2022/10/04 05:41:57;;;;;;;24.73;22.87;;;;;;;;;;5077340;28;20430;-77
2022/10/04 05:44:26;;;;;;;23.37;22.07;;;;;;;;;;5078062;28;20416;-78
2022/10/04 05:46:55;;;;;;;23.43;21.60;;;;;;;;;;5077515;28;20802;-78
2022/10/04 05:49:24;;;;;;;25.50;23.50;;;;;;;;;;5077254;28;20485;-77
2022/10/04 05:51:53;;;;;;;26.60;24.90;;;;;;;;;;5076682;28;20483;-78
2022/10/04 05:54:22;;;;;;;26.27;24.90;;;;;;;;;;5077400;28;20457;-78
2022/10/04 05:56:59;;;;;;;24.70;23.10;;;;;;;;;;5077902;28;20453;-77
2022/10/04 05:59:37;;;;;;;41.60;39.10;;;;;;;;;;5076637;28;20445;-74
2022/10/04 06:02:10;;;;;;;24.80;22.70;;;;;;;;;;5075149;28;20491;-74
2022/10/04 06:04:41;;;;;;;24.93;22.97;;;;;;;;;;5076897;28;20428;-77
2022/10/04 06:07:14;;;;;;;29.00;26.90;;;;;;;;;;5078612;28;20407;-77
2022/10/04 06:09:56;;;;;;;25.00;23.00;;;;;;;;;;5078754;28;20421;-79
2022/10/04 06:12:32;;;;;;;24.57;22.67;;;;;;;;;;5077018;28;20495;-73
2022/10/04 06:15:08;;;;;;;41.53;39.23;;;;;;;;;;5076403;28;20439;-75
2022/10/04 06:17:45;;;;;;;46.13;43.00;;;;;;;;;;5081392;28;20493;-81
2022/10/04 06:20:39;;;;;;;26.83;25.17;;;;;;;;;;5085809;28;20420;-80
2022/10/04 06:23:12;;;;;;;48.50;45.70;;;;;;;;;;5055620;28;20482;-80
2022/10/04 06:25:44;;;;;;;23.93;22.37;;;;;;;;;;5104206;28;20429;-80
2022/10/04 06:28:16;;;;;;;62.33;59.13;;;;;;;;;;5104702;28;20398;-80
2022/10/04 06:30:52;;;;;;;64.20;60.77;;;;;;;;;;5103716;28;20841;-80
2022/10/04 06:33:30;;;;;;;23.40;21.90;;;;;;;;;;5102520;28;20460;-81
2022/10/04 06:36:06;;;;;;;32.33;30.07;;;;;;;;;;5102869;28;20463;-81
2022/10/04 06:38:53;;;;;;;25.03;22.80;;;;;;;;;;5102132;28;20479;-82
2022/10/04 06:41:31;;;;;;;56.27;53.33;;;;;;;;;;5101201;28;20447;-81
2022/10/04 06:44:13;;;;;;;27.07;25.20;;;;;;;;;;5101564;28;20476;-80
2022/10/04 06:46:44;;;;;;;25.60;23.43;;;;;;;;;;5101501;28;20471;-80
2022/10/04 06:49:33;;;;;;;35.47;33.17;;;;;;;;;;5102325;28;20502;-80
2022/10/04 06:52:11;;;;;;;25.57;23.67;;;;;;;;;;5096519;28;20460;-81
2022/10/04 06:54:45;;;;;;;27.87;26.37;;;;;;;;;;5102168;28;20456;-81
2022/10/04 06:57:24;;;;;;;56.13;53.00;;;;;;;;;;5102292;28;20764;-81
2022/10/04 07:00:03;;;;;;;40.50;38.27;;;;;;;;;;5100260;28;21073;-81
2022/10/04 07:02:33;;;;;;;34.53;32.43;;;;;;;;;;5101289;28;20475;-81
2022/10/04 07:05:03;;;;;;;50.50;47.50;;;;;;;;;;5101000;28;20411;-80
2022/10/04 07:07:36;;;;;;;30.70;28.53;;;;;;;;;;5102617;28;20544;-79
2022/10/04 07:10:10;;;;;;;50.77;48.07;;;;;;;;;;5101155;28;20505;-79
2022/10/04 07:12:41;;;;;;;57.80;54.97;;;;;;;;;;5101343;28;20800;-80
2022/10/04 07:15:16;;;;;;;56.97;54.23;;;;;;;;;;5100894;28;20439;-80
2022/10/04 07:17:46;;;;;;;54.80;51.83;;;;;;;;;;5099414;28;20805;-79
2022/10/04 07:20:18;;;;;;;57.40;54.03;;;;;;;;;;5101583;28;20829;-80
2022/10/04 07:22:50;;;;;;;61.73;58.27;;;;;;;;;;5102071;28;20475;-79
2022/10/04 07:25:21;;;;;;;24.13;22.00;;;;;;;;;;5102124;28;20482;-80
2022/10/04 07:29:19;;;;;;;22.87;21.47;;;;;;;;;;5101011;28;20441;-81
2022/10/04 07:30:45;;;;;;;39.43;37.47;;;;;;;;;;5100904;28;20465;-81
2022/10/04 07:33:15;;;;;;;39.20;36.67;;;;;;;;;;5101519;28;20505;-80
2022/10/04 07:35:46;;;;;;;35.27;33.43;;;;;;;;;;5100196;28;20439;-81
2022/10/04 07:38:17;;;;;;;23.10;21.80;;;;;;;;;;5100287;28;20479;-80
2022/10/04 07:41:02;;;;;;;35.03;32.17;;;;;;;;;;5100838;28;20435;-81
2022/10/04 07:43:30;;;;;;;31.30;29.53;;;;;;;;;;5100955;28;20453;-79
2022/10/04 07:46:03;;;;;;;22.83;21.33;;;;;;;;;;5097485;28;20839;-75
2022/10/04 07:48:30;;;;;;;43.67;40.53;;;;;;;;;;5093959;28;20496;-80
2022/10/04 07:51:02;;;;;;;54.67;50.77;;;;;;;;;;5094036;28;20467;-76
2022/10/04 07:53:32;;;;;;;41.23;39.07;;;;;;;;;;5095116;28;20479;-75
2022/10/04 07:56:02;;;;;;;38.83;36.63;;;;;;;;;;5092692;28;20475;-76
2022/10/04 07:58:36;;;;;;;32.90;29.50;;;;;;;;;;5099699;28;20451;-83
2022/10/04 08:01:08;;;;;;;23.43;21.93;;;;;;;;;;5103904;28;20476;-84
2022/10/04 08:03:54;;;;;;;24.13;22.23;;;;;;;;;;5100684;28;20469;-81
2022/10/04 08:06:26;;;;;;;23.87;21.97;;;;;;;;;;5103168;28;20469;-80
2022/10/04 08:09:01;;;;;;;25.07;23.27;;;;;;;;;;5096722;28;20421;-78
2022/10/04 08:11:34;;;;;;;22.67;21.07;;;;;;;;;;5095439;28;20427;-78
2022/10/04 08:14:09;;;;;;;23.00;21.40;;;;;;;;;;5094959;28;20442;-78
2022/10/04 08:16:43;;;;;;;23.20;21.70;;;;;;;;;;5095064;28;20449;-77
2022/10/04 08:19:23;;;;;;;35.20;32.23;;;;;;;;;;5095741;28;20485;-78
2022/10/04 08:21:54;;;;;;;23.87;22.10;;;;;;;;;;5095100;28;20432;-78
2022/10/04 08:24:27;;;;;;;25.07;23.57;;;;;;;;;;5094645;28;20448;-77
2022/10/04 08:26:59;;;;;;;28.90;26.80;;;;;;;;;;5100054;28;20436;-79
2022/10/04 08:29:42;;;;;;;22.60;21.30;;;;;;;;;;5101482;28;20407;-82
2022/10/04 08:32:22;;;;;;;22.97;21.37;;;;;;;;;;5100050;28;20430;-81
2022/10/04 08:35:00;;;;;;;26.20;23.93;;;;;;;;;;5095317;28;20933;-74
2022/10/04 08:37:32;;;;;;;24.90;22.70;;;;;;;;;;5093908;28;20447;-78
2022/10/04 08:40:04;;;;;;;24.97;23.17;;;;;;;;;;5094316;28;20421;-75
2022/10/04 08:42:49;;;;;;;24.43;22.73;;;;;;;;;;5093157;28;20520;-75
2022/10/04 08:45:45;;;;;;;25.43;23.60;;;;;;;;;;5094153;28;20864;-75
2022/10/04 08:48:44;;;;;;;29.87;27.87;;;;;;;;;;5093831;28;20913;-75
2022/10/04 08:51:30;;;;;;;26.70;24.20;;;;;;;;;;5093907;28;20408;-75
2022/10/04 08:54:21;;;;;;;26.33;24.33;;;;;;;;;;5093559;28;20484;-75
2022/10/04 08:56:58;;;;;;;27.10;24.83;;;;;;;;;;5036789;28;20860;-75
2022/10/04 08:59:38;;;;;;;26.53;23.83;;;;;;;;;;5093774;28;20475;-76
2022/10/04 09:02:15;;;;;;;25.63;23.13;;;;;;;;;;5081531;28;20445;-76
2022/10/04 09:05:01;;;;;;;28.90;23.67;;;;;;;;;;5073870;28;20941;-82
2022/10/04 09:07:45;;;;;;;26.17;24.30;;;;;;;;;;5085118;28;20447;-75
2022/10/04 09:10:21;;;;;;;24.30;22.43;;;;;;;;;;5097919;28;20889;-76
2022/10/04 09:12:57;;;;;;;23.43;21.83;;;;;;;;;;5097341;28;20466;-76
2022/10/04 09:15:29;;;;;;;23.70;21.73;;;;;;;;;;5097864;28;20427;-76
2022/10/04 09:18:03;;;;;;;22.10;20.80;;;;;;;;;;5097443;28;20979;-76
2022/10/04 09:20:40;;;;;;;23.00;21.33;;;;;;;;;;5097444;28;20908;-76
2022/10/04 09:23:17;;;;;;;21.97;20.60;;;;;;;;;;5096735;28;20964;-76
2022/10/04 09:25:59;;;;;;;23.83;22.13;;;;;;;;;;5097476;28;20441;-76
2022/10/04 09:28:38;;;;;;;22.03;20.60;;;;;;;;;;5097616;28;20498;-76
2022/10/04 09:31:16;;;;;;;28.33;24.70;;;;;;;;;;5096799;28;20448;-75
2022/10/04 09:33:55;;;;;;;23.37;21.87;;;;;;;;;;5097520;28;20469;-75
2022/10/04 09:36:39;;;;;;;22.47;20.90;;;;;;;;;;5098419;28;20451;-76
2022/10/04 09:39:22;;;;;;;22.53;21.13;;;;;;;;;;5096983;28;20468;-75
2022/10/04 09:42:06;;;;;;;21.63;20.23;;;;;;;;;;5097152;28;20813;-75
2022/10/04 09:44:49;;;;;;;24.33;22.67;;;;;;;;;;5097382;28;20437;-75
2022/10/04 09:47:30;;;;;;;24.80;23.60;;;;;;;;;;5097778;28;20442;-76
2022/10/04 09:50:12;;;;;;;22.80;21.30;;;;;;;;;;5097116;28;20975;-77
2022/10/04 09:52:45;;;;;;;22.37;20.87;;;;;;;;;;5097046;28;20476;-75
2022/10/04 09:55:24;;;;;;;25.73;24.03;;;;;;;;;;5097343;28;20437;-76
2022/10/04 09:58:04;;;;;;;33.73;31.27;;;;;;;;;;5099858;28;20912;-74
2022/10/04 10:00:36;;;;;;;26.63;24.87;;;;;;;;;;5099197;28;20832;-76
2022/10/04 10:03:22;;;;;;;22.93;21.33;;;;;;;;;;5096470;28;20480;-77
2022/10/04 10:06:12;;;;;;;24.87;23.07;;;;;;;;;;5099994;28;20472;-81
2022/10/04 10:08:43;;;;;;;22.97;21.47;;;;;;;;;;5087524;28;20438;-82
2022/10/04 10:14:19;;;;;;;26.07;24.27;;;;;;;;;;5086565;28;20470;-83
2022/10/04 10:16:58;;;;;;;29.67;27.77;;;;;;;;;;5087325;28;20788;-83
2022/10/04 10:19:46;;;;;;;23.60;22.20;;;;;;;;;;5085140;28;20556;-82
2022/10/04 10:22:30;;;;;;;22.40;20.50;;;;;;;;;;5077977;28;20859;-76
2022/10/04 10:25:08;;;;;;;28.63;27.17;;;;;;;;;;5076201;28;20441;-76
2022/10/04 10:27:44;;;;;;;22.40;20.60;;;;;;;;;;5075857;28;20430;-76
2022/10/04 10:30:19;;;;;;;25.00;23.40;;;;;;;;;;5075630;28;20909;-76
2022/10/04 10:32:56;;;;;;;24.97;23.37;;;;;;;;;;5075889;28;20989;-78
2022/10/04 10:35:38;;;;;;;22.50;21.10;;;;;;;;;;5077667;28;20436;-76
2022/10/04 10:38:31;;;;;;;25.30;23.57;;;;;;;;;;5073496;28;20469;-75
2022/10/04 10:41:09;;;;;;;22.17;20.17;;;;;;;;;;5075588;28;20442;-75
2022/10/04 10:43:45;;;;;;;34.63;32.83;;;;;;;;;;5075240;28;20827;-76
2022/10/04 10:46:36;;;;;;;23.17;21.33;;;;;;;;;;5075745;28;20914;-76
2022/10/04 10:49:14;;;;;;;24.47;22.57;;;;;;;;;;5075456;28;20516;-75
2022/10/04 10:51:54;;;;;;;23.13;21.33;;;;;;;;;;5074641;28;20441;-76
2022/10/04 10:54:46;;;;;;;25.50;24.00;;;;;;;;;;5075576;28;20866;-75
2022/10/04 10:57:23;;;;;;;23.87;22.30;;;;;;;;;;5019207;28;20484;-75
2022/10/04 11:00:08;;;;;;;27.00;25.10;;;;;;;;;;5074792;28;20486;-76
2022/10/04 11:02:51;;;;;;;23.93;22.10;;;;;;;;;;5064623;28;20476;-76
2022/10/04 11:05:37;;;;;;;23.80;21.90;;;;;;;;;;5075292;28;20432;-75
2022/10/04 11:08:16;;;;;;;32.93;31.07;;;;;;;;;;5075543;28;20846;-76
2022/10/04 11:11:04;;;;;;;24.30;22.60;;;;;;;;;;5075438;28;20467;-76
2022/10/04 11:13:47;;;;;;;24.80;23.10;;;;;;;;;;5075424;28;20462;-77
2022/10/04 11:16:33;;;;;;;23.37;21.87;;;;;;;;;;5074991;28;20457;-75
2022/10/04 11:19:18;;;;;;;31.03;29.23;;;;;;;;;;5075302;28;20578;-76
2022/10/04 11:22:06;;;;;;;25.47;23.37;;;;;;;;;;5075049;28;20448;-75
2022/10/04 11:24:44;;;;;;;24.63;22.03;;;;;;;;;;5074973;28;20448;-75
2022/10/04 11:27:15;;;;;;;23.57;21.27;;;;;;;;;;5075374;28;20786;-75
2022/10/04 11:29:53;;;;;;;30.87;28.67;;;;;;;;;;5074277;28;20422;-75
2022/10/04 11:32:44;;;;;;;27.80;25.77;;;;;;;;;;5073577;28;20470;-76
2022/10/04 11:35:25;;;;;;;50.87;48.20;;;;;;;;;;5050762;28;20445;-76
2022/10/04 11:38:03;;;;;;;25.53;23.73;;;;;;;;;;5074743;28;20431;-75
2022/10/04 11:40:39;;;;;;;24.47;22.47;;;;;;;;;;5073979;28;20522;-76
2022/10/04 11:43:16;;;;;;;41.90;39.50;;;;;;;;;;5073432;28;20557;-76
2022/10/04 11:45:55;;;;;;;75.57;71.80;;;;;;;;;;5074008;28;20435;-76
2022/10/04 11:48:30;;;;;;;44.37;41.90;;;;;;;;;;5073813;28;20467;-76
2022/10/04 11:51:11;;;;;;;25.23;22.80;;;;;;;;;;5073250;28;20890;-76
2022/10/04 11:53:53;;;;;;;39.97;37.67;;;;;;;;;;5073740;28;20463;-76
2022/10/04 11:56:24;;;;;;;75.47;71.63;;;;;;;;;;5073939;28;20460;-77
2022/10/04 11:59:06;;;;;;;67.63;64.33;;;;;;;;;;5074128;28;20473;-76
2022/10/04 12:01:46;;;;;;;81.03;77.20;;;;;;;;;;5073426;28;20436;-76
2022/10/04 12:04:40;;;;;;;39.27;36.97;;;;;;;;;;5073745;28;20471;-76
2022/10/04 12:07:25;;;;;;;98.40;93.87;;;;;;;;;;5073700;28;20969;-75
2022/10/04 12:09:56;;;;;;;49.30;46.70;;;;;;;;;;5073700;28;20581;-76
2022/10/04 12:12:40;;;;;;;42.03;39.13;;;;;;;;;;5073140;28;20468;-75
2022/10/04 12:15:22;;;;;;;79.60;75.80;;;;;;;;;;5073692;28;20431;-75
2022/10/04 12:18:11;;;;;;;77.13;73.60;;;;;;;;;;5072611;28;20441;-75
2022/10/04 12:21:01;;;;;;;65.47;62.30;;;;;;;;;;5068696;28;20485;-75
2022/10/04 12:23:40;;;;;;;83.77;79.87;;;;;;;;;;5073246;28;20482;-75
2022/10/04 12:26:20;;;;;;;43.23;41.07;;;;;;;;;;5073721;28;20454;-75
2022/10/04 12:28:53;;;;;;;49.33;46.77;;;;;;;;;;5073485;28;20930;-75
2022/10/04 12:31:24;;;;;;;36.00;34.20;;;;;;;;;;5073243;28;20431;-75
2022/10/04 12:33:54;;;;;;;39.03;36.67;;;;;;;;;;5073624;28;20471;-75
2022/10/04 12:36:27;;;;;;;37.70;35.37;;;;;;;;;;5073547;28;20452;-75
2022/10/04 12:39:08;;;;;;;29.57;26.97;;;;;;;;;;5073473;28;20437;-75
2022/10/04 12:41:42;;;;;;;27.70;25.50;;;;;;;;;;5073080;28;20438;-75
2022/10/04 12:44:19;;;;;;;23.43;21.80;;;;;;;;;;5077315;28;20476;-76
2022/10/04 12:46:53;;;;;;;55.20;52.33;;;;;;;;;;5077239;28;20936;-75
2022/10/04 12:49:26;;;;;;;40.47;38.27;;;;;;;;;;5076568;28;20467;-75
2022/10/04 12:52:00;;;;;;;23.70;22.07;;;;;;;;;;5076624;28;20447;-75
2022/10/04 12:54:33;;;;;;;32.50;30.50;;;;;;;;;;5077005;28;20447;-76
2022/10/04 12:57:06;;;;;;;23.77;22.27;;;;;;;;;;5077208;28;20439;-75
2022/10/04 12:59:42;;;;;;;46.83;44.57;;;;;;;;;;5077243;28;20469;-79
2022/10/04 13:02:23;;;;;;;23.73;21.83;;;;;;;;;;5076347;28;20554;-75
2022/10/04 13:04:53;;;;;;;23.03;21.73;;;;;;;;;;5077176;28;20431;-75
2022/10/04 13:07:31;;;;;;;32.73;30.70;;;;;;;;;;5076933;28;20448;-76
2022/10/04 13:10:04;;;;;;;52.33;49.63;;;;;;;;;;5077076;28;20447;-76
2022/10/04 13:12:37;;;;;;;32.53;30.93;;;;;;;;;;5076204;28;20462;-76
2022/10/04 13:15:28;;;;;;;74.13;70.77;;;;;;;;;;5076344;28;20469;-76
2022/10/04 13:18:03;;;;;;;136.60;131.30;;;;;;;;;;5073446;28;20500;-75
2022/10/04 13:20:46;;;;;;;60.70;58.10;;;;;;;;;;5076500;28;20473;-75
2022/10/04 13:23:22;;;;;;;27.40;25.77;;;;;;;;;;5076154;28;20471;-76
2022/10/04 13:26:01;;;;;;;29.07;27.17;;;;;;;;;;5077223;28;20799;-76
2022/10/04 13:28:30;;;;;;;32.03;30.17;;;;;;;;;;5076369;28;20436;-76
2022/10/04 13:31:00;;;;;;;22.93;21.33;;;;;;;;;;5075684;28;20466;-76
2022/10/04 13:33:35;;;;;;;24.47;22.60;;;;;;;;;;5075971;28;20469;-75
2022/10/04 13:36:06;;;;;;;25.10;23.60;;;;;;;;;;5076799;28;20431;-75
2022/10/04 13:38:38;;;;;;;24.70;22.90;;;;;;;;;;5076398;28;20451;-76
2022/10/04 13:41:17;;;;;;;33.97;26.67;;;;;;;;;;5075589;28;21076;-75
2022/10/04 13:44:01;;;;;;;94.90;91.07;;;;;;;;;;5076029;28;20471;-80
2022/10/04 13:46:32;;;;;;;119.13;114.30;;;;;;;;;;5076675;28;20403;-75
2022/10/04 13:49:13;;;;;;;24.67;22.57;;;;;;;;;;5076726;28;20509;-75
2022/10/04 13:51:44;;;;;;;28.27;26.57;;;;;;;;;;5075536;28;20925;-75
2022/10/04 13:57:16;;;;;;;37.73;35.63;;;;;;;;;;5076417;28;20404;-75
2022/10/04 13:59:46;;;;;;;22.63;21.23;;;;;;;;;;5075848;28;20475;-75
2022/10/04 14:02:37;;;;;;;24.07;22.23;;;;;;;;;;5074713;28;20487;-75
2022/10/04 14:05:21;;;;;;;23.40;21.80;;;;;;;;;;5076074;28;20440;-75
2022/10/04 14:08:06;;;;;;;31.47;29.43;;;;;;;;;;5075168;28;20441;-75
2022/10/04 14:10:48;;;;;;;33.93;32.07;;;;;;;;;;5076722;28;20443;-78
2022/10/04 14:13:28;;;;;;;48.67;45.97;;;;;;;;;;5075398;28;20463;-75
2022/10/04 14:16:05;;;;;;;33.17;31.40;;;;;;;;;;5075952;28;20440;-75
2022/10/04 14:19:06;;;;;;;160.87;154.60;;;;;;;;;;5075327;28;20429;-75
2022/10/04 14:22:03;;;;;;;71.07;67.93;;;;;;;;;;5074994;28;20502;-75
2022/10/04 14:24:48;;;;;;;90.33;86.77;;;;;;;;;;5013525;28;20447;-75
2022/10/04 14:27:23;;;;;;;92.47;88.87;;;;;;;;;;5068676;28;20429;-75
2022/10/04 14:29:57;;;;;;;148.50;142.77;;;;;;;;;;5075748;28;20423;-75
2022/10/04 14:32:35;;;;;;;85.57;82.33;;;;;;;;;;5075435;28;20460;-75
2022/10/04 14:35:03;;;;;;;23.20;21.80;;;;;;;;;;5075182;28;20931;-75
2022/10/04 14:37:52;;;;;;;49.17;46.87;;;;;;;;;;5075039;28;20451;-75
2022/10/04 14:40:28;;;;;;;72.20;69.30;;;;;;;;;;5075824;28;20489;-78
2022/10/04 14:43:14;;;;;;;51.70;49.07;;;;;;;;;;5076951;28;20484;-74
2022/10/04 14:45:45;;;;;;;49.00;46.60;;;;;;;;;;5075306;28;20868;-75
2022/10/04 14:48:29;;;;;;;75.43;71.83;;;;;;;;;;5075063;28;20835;-74
2022/10/04 14:51:07;;;;;;;91.97;87.80;;;;;;;;;;5074627;28;20790;-75
2022/10/04 14:53:36;;;;;;;68.30;65.33;;;;;;;;;;5074790;28;20473;-74
2022/10/04 14:56:22;;;;;;;94.93;91.20;;;;;;;;;;5075029;28;20474;-75
2022/10/04 14:58:54;;;;;;;139.47;133.87;;;;;;;;;;5075127;28;20464;-74
2022/10/04 15:01:22;;;;;;;118.23;113.17;;;;;;;;;;5074119;28;20491;-76
2022/10/04 15:04:12;;;;;;;167.83;161.07;;;;;;;;;;5074611;28;20468;-74
2022/10/04 15:06:47;;;;;;;169.47;162.57;;;;;;;;;;5074325;28;20435;-74
2022/10/04 15:09:31;;;;;;;380.07;361.27;;;;;;;;;;5074319;28;20989;-75
2022/10/04 15:12:02;;;;;;;249.20;239.07;;;;;;;;;;5074251;28;20399;-74